AirNav   ProFlight Series 2 Aviation Headset
 
 434 users online  

8VA2 Shivok Airport
Callao, Virginia, USA

GOING TO CALLAO?


FAA INFORMATION EFFECTIVE 16 JULY 2020

Location

FAA Identifier: 8VA2
Lat/Long: 38-00-32.4680N 076-33-46.8380W
38-00.541133N 076-33.780633W
38.0090189,-76.5630106
(estimated)
Elevation: 22 ft. / 6.7 m (surveyed)
Variation: 09W (1985)
From city: 3 miles N of CALLAO, VA
Time zone: UTC -4 (UTC -5 during Standard Time)
Zip code: 22435

Airport Operations

Airport use: Private use. Permission required prior to landing
Activation date: 07/1989
Control tower: no
ARTCC: WASHINGTON CENTER
FSS: LEESBURG FLIGHT SERVICE STATION
Attendance: UNATNDD
Wind indicator: yes
Segmented circle: no

Airport Communications

WX AWOS-3 at XSA (18 nm SW): 125.775 (804-445-8724)
WX AWOS-3 at 2W6 (18 nm N): 119.575 (301-373-6514)

Nearby radio navigation aids

VOR radial/distance  VOR name  Freq  Var
PXTr215/18.4PATUXENT VORTAC117.6010W
HCMr019/34.4HARCUM VORTAC108.8007W

 
NDB name  Hdg/Dist  Freq  Var  ID
PATUXENT214/18.240010WNHK -. .... -.-

Airport Services

Runway Information

Runway 14/32

Dimensions: 2300 x 75 ft. / 701 x 23 m
Surface: turf, in good condition
RUNWAY 14  RUNWAY 32
Traffic pattern: leftleft
Displaced threshold: 330 ft.no
Obstructions: 50 ft. trees, 330 ft. from runwaynone

Airport Ownership and Management from official FAA records

Ownership: Privately-owned
Owner: RONALD J SHIVOK
P O BOX 84, ROUTE 621
CALLAO, VA 22435
Phone 804-529-6131
Manager: RONALD J SHIVOK
P O BOX 84, ROUTE 621
CALLAO, VA 22435
Phone 804-529-6131

Airport Operational Statistics

Aircraft based on the field: 1
Single engine airplanes: 1
    

Additional Remarks

FOR CD CTC WASHINGTON ARTCC AT 703-771-3587.

Instrument Procedures

There are no published instrument procedures at 8VA2.

Some nearby airports with instrument procedures:

KXSA - Tappahannock-Essex County Airport (18 nm SW)
KNHK - Patuxent River Naval Air Station (Trapnell Field) (18 nm NE)
2W6 - St Mary's County Regional Airport (18 nm N)
W75 - Hummel Field Airport (25 nm S)
KTGI - Tangier Island Airport (29 nm E)
 
Loc | Ops | Rwys | IFR | FBO | Links
Com | Nav | Svcs | Stats | Notes
Area around 8VA2 (Shivok Airport)
 
Road maps at: MapQuest Bing Google
 
Aerial photo
No photo
 
Sectional chart

 
Airport distance calculator
Flying to Shivok Airport? Find the distance to fly.

From to 8VA2

Sunrise and sunset
Times for 10-Aug-2020
 Local
(UTC-4)
 Zulu
(UTC)
Morning civil twilight05:5009:50
Sunrise06:1910:19
Sunset20:0400:04
Evening civil twilight20:3200:32

Current date and time
Zulu (UTC)  10-Aug-2020 10:20:22
Local (UTC-4)  10-Aug-2020 06:20:22
 
METAR
KNUI 
10nm NE 
100953Z AUTO 23003KT 10SM CLR 26/25 A3006 RMK AO2 SLP179 T02560250
KNHK 
17nm NE 
100952Z 22003KT 9SM CLR 24/24 A3006 RMK AO2 SLP180 T02390239 $
KXSA 
18nm SW 
100835Z AUTO 00000KT 4SM BR 22/22 A3009 RMK AO2 T02210221
K2W6 
18nm N 
100955Z AUTO 00000KT 10SM CLR 23/22 A3009 RMK AO1
TAF
KNHK 
17nm NE 
1007/1107 VRB04KT 9999 FEW250 QNH2998INS FM101800 14007KT 9999 FEW030 SCT250 QNH2999INS FM110100 17003KT 9999 SKC QNH2995INS AUTOMATED SENSOR METWATCH 1007 TIL 1008 T23/1010Z T30/1020Z FN00085
NOTAMs
Click for the latest NOTAMs
NOTAMs are issued by the DoD/FAA and will open in a separate window not controlled by AirNav.

 

 
 

Would you like to see your business listed on this page?

 If your business provides an interesting product or service to pilots, flight crews, aircraft, or users of the Shivok Airport, you should consider listing it here.  To start the listing process, click on the button below
 
Add a business
 

Other Pages about Shivok Airport

Update a link
 
Copyright © AirNav, LLC. All rights reserved. Privacy Policy  Contact